KBOW/BOW METAR and TAF weather

Enter ICAO airport designator
Station Type Date Time Source
KBOW METAR 2020/07/02 18:50 UTC NOAA

KBOW 021850Z 23004KT 8SM SCT040 24/23 A2996


Station Type Date Time Source
KBOW Decoded METAR 2020/07/02 18:50 UTC NOAA

Bartow Municipal, FL, United States (KBOW) 27-57N 081-47W
Jul 02, 2020 - 02:50 PM EDT / 2020.07.02 1850 UTC
Wind: from the SW (230 degrees) at 5 MPH (4 KT):0
Visibility: 8 mile(s):0
Sky conditions: partly cloudy
Temperature: 75 F (24 C)
Dew Point: 73 F (23 C)
Relative Humidity: 94%
Pressure (altimeter): 29.96 in. Hg (1014 hPa)
ob: KBOW 021850Z 23004KT 8SM SCT040 24/23 A2996
cycle: 19

Station Type Date Time Source
KBOW TAF UTC NOAA

Error!

Example: see airport list